Time;durP1;ratioP1;P1;durP2;ratioP2;P2;SDS_P1;SDS_P2;PMS_P1;PMS_P2;Temp;Humidity;BMP_temperature;BMP_pressure;BME280_temperature;BME280_humidity;BME280_pressure;Samples;Min_cycle;Max_cycle;Signal;HPM_P1;HPM_P2
2023/06/23 00:01:37;;;;;;;0.00;0.00;;;19.60;99.90;;;;;;6272141;22;19996;-87
2023/06/23 00:04:03;;;;;;;0.00;0.00;;;;;;;;;;6273173;22;20018;-87
2023/06/23 00:06:29;;;;;;;0.00;0.00;;;;;;;;;;6272811;22;20008;-87
2023/06/23 00:08:55;;;;;;;0.00;0.00;;;;;;;;;;6272081;22;19996;-87
2023/06/23 00:11:21;;;;;;;0.00;0.00;;;;;;;;;;6271506;22;20063;-86
2023/06/23 00:13:47;;;;;;;0.00;0.00;;;;;;;;;;6272922;22;20091;-86
2023/06/23 00:16:12;;;;;;;0.00;0.00;;;;;;;;;;6273592;22;20035;-87
2023/06/23 00:18:41;;;;;;;0.00;0.00;;;19.50;99.90;;;;;;6272607;22;20011;-86
2023/06/23 00:21:08;;;;;;;0.00;0.00;;;19.40;99.90;;;;;;6272373;22;20015;-88
2023/06/23 00:23:35;;;;;;;0.00;0.00;;;19.50;99.90;;;;;;6273311;22;20378;-88
2023/06/23 00:26:01;;;;;;;0.00;0.00;;;19.20;99.90;;;;;;6273547;22;20012;-87
2023/06/23 00:28:27;;;;;;;0.00;0.00;;;;;;;;;;6273452;22;20000;-86
2023/06/23 00:30:53;;;;;;;0.00;0.00;;;18.90;99.90;;;;;;6273806;22;19996;-87
2023/06/23 00:33:19;;;;;;;0.00;0.00;;;;;;;;;;6272903;22;20340;-85
2023/06/23 00:35:45;;;;;;;0.00;0.00;;;;;;;;;;6272461;22;20004;-86
2023/06/23 00:38:11;;;;;;;0.00;0.00;;;;;;;;;;6273407;22;20065;-88
2023/06/23 00:40:38;;;;;;;0.00;0.00;;;18.70;99.90;;;;;;6272305;22;20003;-89
2023/06/23 00:43:03;;;;;;;0.00;0.00;;;18.60;99.90;;;;;;6273545;22;20004;-86
2023/06/23 00:45:29;;;;;;;0.00;0.00;;;;;;;;;;6270219;22;20015;-87
2023/06/23 00:47:55;;;;;;;0.00;0.00;;;18.40;99.90;;;;;;6272892;22;20003;-86
2023/06/23 00:50:23;;;;;;;0.00;0.00;;;18.40;99.90;;;;;;6272808;22;20077;-88
2023/06/23 00:52:51;;;;;;;0.00;0.00;;;18.50;99.90;;;;;;6273371;22;20011;-88
2023/06/23 00:55:28;;;;;;;0.00;0.00;;;18.40;99.90;;;;;;6273480;22;19999;-86
2023/06/23 00:57:56;;;;;;;0.00;0.00;;;18.40;99.90;;;;;;6273674;22;20007;-87
2023/06/23 01:00:23;;;;;;;0.00;0.00;;;18.20;99.90;;;;;;6272948;22;20007;-86
2023/06/23 01:02:52;;;;;;;0.00;0.00;;;18.10;99.90;;;;;;6275082;22;20015;-87
2023/06/23 01:05:21;;;;;;;0.00;0.00;;;17.90;99.90;;;;;;6275770;22;20000;-87
2023/06/23 01:07:48;;;;;;;0.00;0.00;;;;;;;;;;6274875;22;20093;-86
2023/06/23 01:10:31;;;;;;;0.00;0.00;;;17.80;99.90;;;;;;6276331;22;20714;-87
2023/06/23 01:13:14;;;;;;;0.00;0.00;;;17.80;99.90;;;;;;6275273;22;20000;-87
2023/06/23 01:15:45;;;;;;;0.00;0.00;;;17.70;99.90;;;;;;6270187;22;20057;-88
2023/06/23 01:18:44;;;;;;;0.00;0.00;;;17.70;99.90;;;;;;6275394;22;20013;-86
2023/06/23 01:21:12;;;;;;;0.00;0.00;;;17.70;99.90;;;;;;6275270;22;20382;-87
2023/06/23 01:24:16;;;;;;;0.00;0.00;;;17.60;99.90;;;;;;6275423;22;20011;-86
2023/06/23 01:26:42;;;;;;;0.00;0.00;;;;;;;;;;6275045;22;20007;-87
2023/06/23 01:29:17;;;;;;;0.00;0.00;;;17.50;99.90;;;;;;6274942;22;20087;-86
2023/06/23 01:31:52;;;;;;;0.00;0.00;;;17.60;99.90;;;;;;6275321;22;20004;-87
2023/06/23 01:34:25;;;;;;;0.00;0.00;;;17.30;99.90;;;;;;6275111;22;20004;-86
2023/06/23 01:36:56;;;;;;;0.00;0.00;;;17.20;99.90;;;;;;6275878;22;20069;-87
2023/06/23 01:39:22;;;;;;;0.00;0.00;;;;;;;;;;6276127;22;20059;-86
2023/06/23 01:41:58;;;;;;;0.00;0.00;;;17.20;99.90;;;;;;6276636;22;20004;-86
2023/06/23 01:44:24;;;;;;;0.00;0.00;;;17.10;99.90;;;;;;6248756;22;20003;-87
2023/06/23 01:46:56;;;;;;;0.00;0.00;;;17.00;99.90;;;;;;6248698;22;20015;-85
2023/06/23 01:49:26;;;;;;;0.00;0.00;;;17.00;99.90;;;;;;6249591;22;19999;-86
2023/06/23 01:51:53;;;;;;;0.00;0.00;;;16.90;99.90;;;;;;6276041;22;20003;-88
2023/06/23 01:54:21;;;;;;;0.00;0.00;;;17.00;99.90;;;;;;6249123;22;20042;-88
2023/06/23 01:56:48;;;;;;;0.00;0.00;;;16.90;99.90;;;;;;6248862;22;20003;-86
2023/06/23 01:59:14;;;;;;;0.00;0.00;;;16.80;99.90;;;;;;6249544;22;20004;-86
2023/06/23 02:01:42;;;;;;;0.00;0.00;;;16.80;99.90;;;;;;6249087;22;19999;-85
2023/06/23 02:04:09;;;;;;;0.00;0.00;;;16.60;99.90;;;;;;6249056;22;20129;-86
2023/06/23 02:06:37;;;;;;;0.00;0.00;;;16.70;99.90;;;;;;6248911;22;20008;-87
2023/06/23 02:09:07;;;;;;;0.00;0.00;;;16.70;99.90;;;;;;6249108;22;20034;-87
2023/06/23 02:11:35;;;;;;;0.00;0.00;;;16.60;99.90;;;;;;6248989;22;20000;-85
2023/06/23 02:14:01;;;;;;;0.00;0.00;;;16.60;99.90;;;;;;6248436;22;20007;-85
2023/06/23 02:16:31;;;;;;;0.00;0.00;;;16.50;99.90;;;;;;6248171;22;20019;-86
2023/06/23 02:18:57;;;;;;;;;;;16.60;99.90;;;;;;6249446;22;20003;-85
2023/06/23 02:21:24;;;;;;;0.00;0.00;;;16.60;99.90;;;;;;6248278;22;19903;-86
2023/06/23 02:23:51;;;;;;;0.00;0.00;;;16.60;99.90;;;;;;6248328;22;20003;-87
2023/06/23 02:26:17;;;;;;;0.00;0.00;;;16.70;99.90;;;;;;6249126;22;20014;-87
2023/06/23 02:28:49;;;;;;;0.00;0.00;;;16.60;99.90;;;;;;6248372;22;19996;-89
2023/06/23 02:31:20;;;;;;;0.00;0.00;;;16.60;99.90;;;;;;6249136;22;19995;-86
2023/06/23 02:33:46;;;;;;;0.00;0.00;;;;;;;;;;6248890;22;20000;-85
2023/06/23 02:36:17;;;;;;;0.00;0.00;;;16.70;99.90;;;;;;6249181;22;20086;-87
2023/06/23 02:38:43;;;;;;;0.00;0.00;;;16.60;99.90;;;;;;6268255;22;20096;-87
2023/06/23 02:41:11;;;;;;;0.00;0.00;;;16.60;99.90;;;;;;6275581;22;20083;-87
2023/06/23 02:43:43;;;;;;;0.00;0.00;;;16.50;99.90;;;;;;6277070;22;19999;-85
2023/06/23 02:46:11;;;;;;;0.00;0.00;;;16.40;99.90;;;;;;6273328;22;20354;-86
2023/06/23 02:48:39;;;;;;;0.00;0.00;;;16.40;99.90;;;;;;6275094;22;20087;-86
2023/06/23 02:51:11;;;;;;;0.00;0.00;;;16.50;99.90;;;;;;6275220;22;20049;-86
2023/06/23 02:53:44;;;;;;;0.00;0.00;;;16.40;99.90;;;;;;6276416;22;19996;-85
2023/06/23 02:56:17;;;;;;;0.00;0.00;;;16.50;99.90;;;;;;6274950;22;20014;-87
2023/06/23 02:58:47;;;;;;;0.00;0.00;;;16.40;99.90;;;;;;6274953;22;20427;-87
2023/06/23 03:01:14;;;;;;;;;;;16.40;99.90;;;;;;6274795;22;20004;-86
2023/06/23 03:03:41;;;;;;;0.00;0.00;;;16.10;99.90;;;;;;6274475;22;19899;-87
2023/06/23 03:06:17;;;;;;;0.00;0.00;;;16.10;99.90;;;;;;6274280;22;20035;-85
2023/06/23 03:08:43;;;;;;;0.00;0.00;;;;;;;;;;6275376;22;20015;-86
2023/06/23 03:11:09;;;;;;;0.00;0.00;;;;;;;;;;6274483;22;20011;-86
2023/06/23 03:13:35;;;;;;;0.00;0.00;;;;;;;;;;6272979;22;20046;-86
2023/06/23 03:16:04;;;;;;;0.00;0.00;;;16.00;99.90;;;;;;6273571;22;20015;-85
2023/06/23 03:18:33;;;;;;;0.00;0.00;;;16.00;99.90;;;;;;6274590;22;20027;-85
2023/06/23 03:21:03;;;;;;;0.00;0.00;;;15.90;99.90;;;;;;6274628;22;20039;-87
2023/06/23 03:23:32;;;;;;;0.00;0.00;;;16.00;99.90;;;;;;6276013;22;20086;-86
2023/06/23 03:25:59;;;;;;;0.00;0.00;;;15.90;99.90;;;;;;6273822;22;20004;-88
2023/06/23 03:28:28;;;;;;;0.00;0.00;;;15.60;99.90;;;;;;6276763;22;20431;-86
2023/06/23 03:31:02;;;;;;;0.00;0.00;;;15.70;99.90;;;;;;6273931;22;20053;-88
2023/06/23 03:33:33;;;;;;;0.00;0.00;;;15.60;99.90;;;;;;6274788;22;20008;-85
2023/06/23 03:36:05;;;;;;;0.00;0.00;;;15.70;99.90;;;;;;6276221;22;20011;-86
2023/06/23 03:38:37;;;;;;;0.00;0.00;;;15.70;99.90;;;;;;6273991;22;20459;-86
2023/06/23 03:41:09;;;;;;;0.00;0.00;;;15.60;99.90;;;;;;6274423;22;20082;-87
2023/06/23 03:43:39;;;;;;;0.00;0.00;;;15.60;99.90;;;;;;6274518;22;20077;-88
2023/06/23 03:46:23;;;;;;;0.00;0.00;;;15.70;99.90;;;;;;6274313;22;20000;-86
2023/06/23 03:48:52;;;;;;;0.00;0.00;;;15.70;99.90;;;;;;6274085;22;20011;-86
2023/06/23 03:51:18;;;;;;;0.00;0.00;;;15.90;99.90;;;;;;6273434;22;20064;-84
2023/06/23 03:53:45;;;;;;;0.00;0.00;;;15.60;99.90;;;;;;6275883;22;20072;-87
2023/06/23 03:56:12;;;;;;;0.00;0.00;;;15.70;99.90;;;;;;6273807;22;20031;-87
2023/06/23 03:58:40;;;;;;;0.00;0.00;;;15.70;99.90;;;;;;6274065;22;20443;-85
2023/06/23 04:01:06;;;;;;;0.00;0.00;;;15.70;99.90;;;;;;6247932;22;20342;-86
2023/06/23 04:03:33;;;;;;;0.00;0.00;;;15.70;99.90;;;;;;6274071;22;20069;-87
2023/06/23 04:06:00;;;;;;;0.00;0.00;;;15.80;99.90;;;;;;6273861;22;20118;-88
2023/06/23 04:08:30;;;;;;;0.00;0.00;;;15.70;99.90;;;;;;6274625;22;20061;-87
2023/06/23 04:10:58;;;;;;;0.00;0.00;;;15.80;99.90;;;;;;6273538;22;20008;-86
2023/06/23 04:13:26;;;;;;;0.00;0.00;;;15.80;99.90;;;;;;6274348;22;20004;-86
2023/06/23 04:15:53;;;;;;;0.00;0.00;;;15.90;99.90;;;;;;6273023;22;20010;-88
2023/06/23 04:18:21;;;;;;;0.00;0.00;;;15.80;99.90;;;;;;6270849;22;20008;-86
2023/06/23 04:20:49;;;;;;;0.00;0.00;;;15.90;99.90;;;;;;6272044;22;19999;-85
2023/06/23 04:23:15;;;;;;;0.00;0.00;;;15.90;99.90;;;;;;6271656;22;20004;-85
2023/06/23 04:25:41;;;;;;;0.10;0.10;;;;;;;;;;6273344;22;20373;-87
2023/06/23 04:28:10;;;;;;;0.00;0.00;;;15.80;99.90;;;;;;6273526;22;20343;-86
2023/06/23 04:30:37;;;;;;;0.00;0.00;;;15.80;99.90;;;;;;6273271;22;20094;-87
2023/06/23 04:33:03;;;;;;;0.00;0.00;;;;;;;;;;6273698;22;20010;-86
2023/06/23 04:35:29;;;;;;;0.00;0.00;;;;;;;;;;6273192;22;20025;-84
2023/06/23 04:38:06;;;;;;;0.00;0.00;;;15.70;99.90;;;;;;6273174;22;20340;-86
2023/06/23 04:40:40;;;;;;;0.00;0.00;;;15.70;99.90;;;;;;6272188;22;20082;-86
2023/06/23 04:43:13;;;;;;;0.00;0.00;;;15.70;99.90;;;;;;6273342;22;20083;-88
2023/06/23 04:45:50;;;;;;;0.00;0.00;;;15.60;99.90;;;;;;6273819;22;20004;-86
2023/06/23 04:48:21;;;;;;;0.00;0.00;;;15.60;99.90;;;;;;6274427;22;20004;-86
2023/06/23 04:50:49;;;;;;;0.00;0.00;;;15.70;99.90;;;;;;6274588;22;20003;-86
2023/06/23 04:53:31;;;;;;;0.00;0.00;;;15.70;99.90;;;;;;6274664;22;20146;-86
2023/06/23 04:56:01;;;;;;;0.00;0.00;;;15.60;99.90;;;;;;6273462;22;20339;-87
2023/06/23 04:58:31;;;;;;;0.00;0.00;;;15.50;99.90;;;;;;6274138;22;20004;-86
2023/06/23 05:00:58;;;;;;;0.00;0.00;;;15.60;99.90;;;;;;6272434;22;20086;-85
2023/06/23 05:03:26;;;;;;;0.00;0.00;;;15.60;99.90;;;;;;6272914;22;20031;-86
2023/06/23 05:05:55;;;;;;;0.00;0.00;;;15.70;99.90;;;;;;6273403;22;20003;-87
2023/06/23 05:08:24;;;;;;;0.00;0.00;;;15.60;99.90;;;;;;6272852;22;20015;-86
2023/06/23 05:10:50;;;;;;;0.00;0.00;;;;;;;;;;6272965;22;20018;-87
2023/06/23 05:13:17;;;;;;;0.00;0.00;;;15.60;99.90;;;;;;6273154;22;20061;-85
2023/06/23 05:15:45;;;;;;;0.00;0.00;;;15.70;99.90;;;;;;6272764;22;20008;-86
2023/06/23 05:18:13;;;;;;;0.00;0.00;;;15.80;99.90;;;;;;6272863;22;20004;-86
2023/06/23 05:20:40;;;;;;;0.00;0.00;;;15.70;99.90;;;;;;6272424;22;20000;-85
2023/06/23 05:23:08;;;;;;;0.00;0.00;;;15.70;99.90;;;;;;6274726;22;20039;-86
2023/06/23 05:25:35;;;;;;;0.00;0.00;;;15.70;99.90;;;;;;6274762;22;20007;-86
2023/06/23 05:28:03;;;;;;;0.00;0.00;;;15.60;99.90;;;;;;6274252;22;20086;-86
2023/06/23 05:30:29;;;;;;;0.00;0.00;;;15.70;99.90;;;;;;6274372;22;20004;-86
2023/06/23 05:32:58;;;;;;;0.00;0.00;;;15.80;99.90;;;;;;6273565;22;20015;-86
2023/06/23 05:35:25;;;;;;;0.00;0.00;;;15.80;99.90;;;;;;6275026;22;20007;-85
2023/06/23 05:37:52;;;;;;;0.00;0.00;;;15.80;99.90;;;;;;6274747;22;20012;-86
2023/06/23 05:40:18;;;;;;;0.00;0.00;;;15.80;99.90;;;;;;6274211;22;20000;-86
2023/06/23 05:42:44;;;;;;;0.00;0.00;;;15.70;99.90;;;;;;6274355;22;20458;-88
2023/06/23 05:45:11;;;;;;;0.00;0.00;;;15.50;99.90;;;;;;6275686;22;20450;-88
2023/06/23 05:48:10;;;;;;;0.00;0.00;;;15.40;99.90;;;;;;6277389;22;20007;-88
2023/06/23 05:50:38;;;;;;;0.00;0.00;;;15.60;99.90;;;;;;6276275;22;20336;-85
2023/06/23 05:53:08;;;;;;;0.00;0.00;;;15.60;99.90;;;;;;6276083;22;20435;-86
2023/06/23 05:55:39;;;;;;;0.00;0.00;;;15.70;99.90;;;;;;6275016;22;20006;-87
2023/06/23 05:58:09;;;;;;;0.00;0.00;;;15.80;99.90;;;;;;6276058;22;20083;-88
2023/06/23 06:00:40;;;;;;;0.00;0.00;;;15.80;99.90;;;;;;6275521;22;20060;-89
2023/06/23 06:03:09;;;;;;;0.00;0.00;;;15.80;99.90;;;;;;6276061;22;20007;-86
2023/06/23 06:05:38;;;;;;;0.00;0.00;;;15.80;99.90;;;;;;6272647;22;20007;-88
2023/06/23 06:08:06;;;;;;;0.00;0.00;;;16.00;99.90;;;;;;6273807;22;20419;-86
2023/06/23 06:10:33;;;;;;;0.00;0.00;;;15.90;99.90;;;;;;6274799;22;20012;-86
2023/06/23 06:13:00;;;;;;;0.00;0.00;;;15.80;99.90;;;;;;6273162;22;20007;-85
2023/06/23 06:15:26;;;;;;;0.00;0.00;;;15.80;99.90;;;;;;6274853;22;20008;-87
2023/06/23 06:17:53;;;;;;;0.00;0.00;;;15.80;99.90;;;;;;6274388;22;20375;-87
2023/06/23 06:20:21;;;;;;;0.00;0.00;;;15.80;99.90;;;;;;6274501;22;20431;-86
2023/06/23 06:22:50;;;;;;;0.00;0.00;;;15.80;99.90;;;;;;6274464;22;20010;-87
2023/06/23 06:25:16;;;;;;;0.00;0.00;;;;;;;;;;6274965;22;20008;-85
2023/06/23 06:27:44;;;;;;;0.00;0.00;;;15.70;99.90;;;;;;6275706;22;20026;-86
2023/06/23 06:30:11;;;;;;;0.00;0.00;;;15.60;99.90;;;;;;6273057;22;20007;-85
2023/06/23 06:32:38;;;;;;;0.00;0.00;;;15.60;99.90;;;;;;6275227;22;20061;-85
2023/06/23 06:35:06;;;;;;;0.00;0.00;;;15.70;99.90;;;;;;6274144;22;20003;-85
2023/06/23 06:37:37;;;;;;;0.00;0.00;;;15.60;99.90;;;;;;6275437;22;20014;-86
2023/06/23 06:40:08;;;;;;;0.00;0.00;;;15.70;99.90;;;;;;6275362;22;20000;-84
2023/06/23 06:42:34;;;;;;;0.00;0.00;;;15.60;99.90;;;;;;6275892;22;20061;-85
2023/06/23 06:45:00;;;;;;;0.00;0.00;;;;;;;;;;6273958;22;20007;-86
2023/06/23 06:47:28;;;;;;;0.00;0.00;;;15.60;99.90;;;;;;6275597;22;20090;-87
2023/06/23 06:49:56;;;;;;;0.00;0.00;;;15.70;99.90;;;;;;6274962;22;20071;-86
2023/06/23 06:52:23;;;;;;;0.00;0.00;;;15.60;99.90;;;;;;6275747;22;20027;-84
2023/06/23 06:54:50;;;;;;;0.00;0.00;;;15.70;99.90;;;;;;6275496;22;20014;-85
2023/06/23 06:57:16;;;;;;;0.00;0.00;;;;;;;;;;6275801;22;20004;-86
2023/06/23 06:59:42;;;;;;;0.00;0.00;;;;;;;;;;6274010;22;20470;-86
2023/06/23 07:02:09;;;;;;;0.00;0.00;;;15.40;99.90;;;;;;6273839;22;20010;-87
2023/06/23 07:04:36;;;;;;;0.00;0.00;;;15.30;99.90;;;;;;6273698;22;19999;-87
2023/06/23 07:07:01;;;;;;;0.00;0.00;;;15.30;99.90;;;;;;6274217;22;20007;-85
2023/06/23 07:09:27;;;;;;;0.00;0.00;;;;;;;;;;6272382;22;20000;-85
2023/06/23 07:11:58;;;;;;;0.00;0.00;;;15.60;99.90;;;;;;6275896;22;20004;-86
2023/06/23 07:14:23;;;;;;;0.00;0.00;;;15.60;99.90;;;;;;6274750;22;20008;-87
2023/06/23 07:16:49;;;;;;;0.00;0.00;;;;;;;;;;6276207;22;20339;-85
2023/06/23 07:19:15;;;;;;;0.00;0.00;;;;;;;;;;6274976;22;20000;-87
2023/06/23 07:21:41;;;;;;;0.00;0.00;;;;;;;;;;6275597;22;20007;-87
2023/06/23 07:24:07;;;;;;;0.00;0.00;;;15.70;99.90;;;;;;6275649;22;20053;-86
2023/06/23 07:26:37;;;;;;;0.00;0.00;;;;;;;;;;6276017;22;20539;-87
2023/06/23 07:29:02;;;;;;;;;;;15.80;99.90;;;;;;6274989;22;20014;-85
2023/06/23 07:31:28;;;;;;;0.00;0.00;;;;;;;;;;6274906;22;19938;-86
2023/06/23 07:33:54;;;;;;;0.00;0.00;;;;;;;;;;6277669;22;20004;-87
2023/06/23 07:36:20;;;;;;;0.00;0.00;;;16.10;99.90;;;;;;6274785;22;20007;-84
2023/06/23 07:38:46;;;;;;;0.00;0.00;;;;;;;;;;6275385;22;20446;-88
2023/06/23 07:41:12;;;;;;;0.00;0.00;;;;;;;;;;6272480;22;20003;-87
2023/06/23 07:43:40;;;;;;;0.00;0.00;;;16.00;99.90;;;;;;6275367;22;20003;-85
2023/06/23 07:46:06;;;;;;;0.00;0.00;;;;;;;;;;6272523;22;19999;-88
2023/06/23 07:48:32;;;;;;;0.00;0.00;;;16.20;99.90;;;;;;6272731;22;20011;-88
2023/06/23 07:50:58;;;;;;;0.00;0.00;;;;;;;;;;6272804;22;20068;-86
2023/06/23 07:53:24;;;;;;;0.00;0.00;;;;;;;;;;6274010;22;20011;-91
2023/06/23 07:55:49;;;;;;;0.00;0.00;;;16.10;99.90;;;;;;6270625;22;20057;-86
2023/06/23 07:58:15;;;;;;;0.00;0.00;;;;;;;;;;6273394;22;20431;-87
2023/06/23 08:00:41;;;;;;;0.00;0.00;;;;;;;;;;6273065;22;20007;-87
2023/06/23 08:03:07;;;;;;;0.00;0.00;;;16.10;99.90;;;;;;6273743;22;20007;-88
2023/06/23 08:05:33;;;;;;;0.00;0.00;;;;;;;;;;6273276;22;20059;-86
2023/06/23 08:07:58;;;;;;;0.00;0.00;;;15.80;99.90;;;;;;6271687;22;20015;-89
2023/06/23 08:10:24;;;;;;;0.00;0.00;;;;;;;;;;6271336;22;20019;-87
2023/06/23 08:12:50;;;;;;;0.00;0.00;;;;;;;;;;6272354;22;20010;-87
2023/06/23 08:15:16;;;;;;;0.00;0.00;;;;;;;;;;6272066;22;20464;-87
2023/06/23 08:17:42;;;;;;;0.00;0.00;;;;;;;;;;6273811;22;20003;-88
2023/06/23 08:20:08;;;;;;;0.00;0.00;;;16.00;99.90;;;;;;6273579;22;20003;-88
2023/06/23 08:22:33;;;;;;;0.00;0.00;;;16.10;99.90;;;;;;6273126;22;20000;-87
2023/06/23 08:24:59;;;;;;;0.00;0.00;;;16.10;99.90;;;;;;6272671;22;20011;-87
2023/06/23 08:27:25;;;;;;;0.00;0.00;;;;;;;;;;6272546;22;20018;-87
2023/06/23 08:29:51;;;;;;;0.00;0.00;;;;;;;;;;6294592;22;20018;-89
2023/06/23 08:32:17;;;;;;;0.00;0.00;;;;;;;;;;6288528;22;20339;-87
2023/06/23 08:34:43;;;;;;;0.00;0.00;;;;;;;;;;6275958;22;20003;-87
2023/06/23 08:37:09;;;;;;;0.00;0.00;;;;;;;;;;6273267;22;20008;-88
2023/06/23 08:39:34;;;;;;;0.00;0.00;;;15.90;99.90;;;;;;6250265;22;20000;-88
2023/06/23 08:42:00;;;;;;;0.00;0.00;;;;;;;;;;6251146;22;20001;-88
2023/06/23 08:44:29;;;;;;;0.00;0.00;;;16.10;99.90;;;;;;6249563;22;20024;-85
2023/06/23 08:47:01;;;;;;;0.10;0.10;;;;;;;;;;6248892;22;20006;-88
2023/06/23 08:49:34;;;;;;;0.00;0.00;;;16.20;99.90;;;;;;6250715;22;20054;-89
2023/06/23 08:52:00;;;;;;;0.00;0.00;;;16.50;99.90;;;;;;6250100;22;20343;-88
2023/06/23 08:54:26;;;;;;;0.00;0.00;;;16.50;99.90;;;;;;6249410;22;19999;-87
2023/06/23 08:56:52;;;;;;;0.00;0.00;;;16.60;99.90;;;;;;6248406;22;20011;-87
2023/06/23 08:59:18;;;;;;;0.00;0.00;;;16.90;99.90;;;;;;6249217;22;20420;-87
2023/06/23 09:01:43;;;;;;;0.00;0.00;;;16.90;99.90;;;;;;6250192;22;20014;-88
2023/06/23 09:04:09;;;;;;;0.00;0.00;;;;;;;;;;6248302;22;20015;-86
2023/06/23 09:06:35;;;;;;;0.00;0.00;;;16.60;99.90;;;;;;6246510;22;20012;-87
2023/06/23 09:09:02;;;;;;;0.00;0.00;;;16.60;99.90;;;;;;6248277;22;20008;-88
2023/06/23 09:11:28;;;;;;;0.00;0.00;;;16.80;99.90;;;;;;6249219;22;20027;-89
2023/06/23 09:13:56;;;;;;;0.00;0.00;;;16.70;99.90;;;;;;6248753;22;20439;-89
2023/06/23 09:16:23;;;;;;;0.00;0.00;;;16.70;99.90;;;;;;6248936;22;20015;-87
2023/06/23 09:18:50;;;;;;;0.00;0.00;;;16.60;99.90;;;;;;6249005;22;20011;-89
2023/06/23 09:21:16;;;;;;;0.00;0.00;;;16.50;99.90;;;;;;6247852;22;20015;-86
2023/06/23 09:24:02;;;;;;;0.00;0.00;;;16.40;99.90;;;;;;6251162;22;20007;-86
2023/06/23 09:26:27;;;;;;;0.00;0.00;;;16.50;99.90;;;;;;6250338;22;20003;-86
2023/06/23 09:29:19;;;;;;;0.00;0.00;;;16.50;99.90;;;;;;6243007;22;20453;-86
2023/06/23 09:31:47;;;;;;;0.00;0.00;;;16.50;99.90;;;;;;6244217;22;20010;-89
2023/06/23 09:34:21;;;;;;;0.00;0.00;;;17.20;99.90;;;;;;6249916;22;20472;-88
2023/06/23 09:36:46;;;;;;;0.00;0.00;;;16.90;99.90;;;;;;6248238;22;20007;-87
2023/06/23 09:39:16;;;;;;;0.00;0.00;;;17.10;99.90;;;;;;6248547;22;20023;-87
2023/06/23 09:41:46;;;;;;;0.00;0.00;;;16.90;99.90;;;;;;6248308;22;20010;-86
2023/06/23 09:44:13;;;;;;;0.00;0.00;;;16.90;99.90;;;;;;6249794;22;20034;-86
2023/06/23 09:46:40;;;;;;;0.00;0.00;;;16.60;99.90;;;;;;6250789;22;20008;-86
2023/06/23 09:49:07;;;;;;;0.00;0.00;;;16.60;99.90;;;;;;6250734;22;20007;-86
2023/06/23 09:51:37;;;;;;;0.00;0.00;;;16.60;99.90;;;;;;6250038;22;20008;-86
2023/06/23 09:54:03;;;;;;;0.00;0.00;;;;;;;;;;6248926;22;20107;-87
2023/06/23 09:56:29;;;;;;;0.00;0.00;;;;;;;;;;6248593;22;19999;-87
2023/06/23 09:58:55;;;;;;;0.00;0.00;;;16.60;99.90;;;;;;6249117;22;20435;-87
2023/06/23 10:01:21;;;;;;;0.00;0.00;;;;;;;;;;6249979;22;20011;-87
2023/06/23 10:03:51;;;;;;;0.00;0.00;;;17.00;99.90;;;;;;6252089;22;20327;-87
2023/06/23 10:06:32;;;;;;;0.00;0.00;;;17.10;99.90;;;;;;6250335;22;20004;-87
2023/06/23 10:09:00;;;;;;;0.00;0.00;;;17.20;99.90;;;;;;6251970;22;20015;-88
2023/06/23 10:11:32;;;;;;;0.00;0.00;;;17.40;99.90;;;;;;6251920;22;20003;-88
2023/06/23 10:14:01;;;;;;;0.00;0.00;;;17.50;99.90;;;;;;6249950;22;20008;-87
2023/06/23 10:16:28;;;;;;;0.00;0.00;;;17.50;99.90;;;;;;6248501;22;20010;-87
2023/06/23 10:18:54;;;;;;;0.00;0.00;;;;;;;;;;6276278;22;20312;-87
2023/06/23 10:21:21;;;;;;;0.00;0.00;;;17.90;99.90;;;;;;6249737;22;20029;-88
2023/06/23 10:23:48;;;;;;;0.00;0.00;;;17.80;99.90;;;;;;6251499;22;20026;-87
2023/06/23 10:26:15;;;;;;;0.00;0.00;;;17.70;99.90;;;;;;6250873;22;20003;-87
2023/06/23 10:28:43;;;;;;;0.00;0.00;;;17.80;99.90;;;;;;6249283;22;20569;-87
2023/06/23 10:31:09;;;;;;;0.00;0.00;;;18.10;99.90;;;;;;6249824;22;20057;-88
2023/06/23 10:33:38;;;;;;;0.00;0.00;;;18.10;99.90;;;;;;6278749;22;20012;-88
2023/06/23 10:36:07;;;;;;;0.00;0.00;;;18.10;99.90;;;;;;6251695;22;20004;-87
2023/06/23 10:38:33;;;;;;;0.00;0.00;;;;;;;;;;6268889;22;20083;-88
2023/06/23 10:41:00;;;;;;;0.00;0.00;;;18.40;99.90;;;;;;6276567;22;20062;-88
2023/06/23 10:43:31;;;;;;;0.00;0.00;;;18.20;99.90;;;;;;6278001;22;19995;-87
2023/06/23 10:45:59;;;;;;;0.00;0.00;;;18.10;99.90;;;;;;6278048;22;20011;-87
2023/06/23 10:48:26;;;;;;;0.00;0.00;;;18.20;99.90;;;;;;6276188;22;20020;-88
2023/06/23 10:50:52;;;;;;;0.00;0.00;;;18.10;99.90;;;;;;6276608;22;20004;-88
2023/06/23 10:53:20;;;;;;;0.00;0.00;;;18.10;99.90;;;;;;6279850;22;20018;-86
2023/06/23 10:55:55;;;;;;;0.00;0.00;;;18.30;99.90;;;;;;6277473;22;20078;-87
2023/06/23 10:58:20;;;;;;;0.00;0.00;;;18.30;99.90;;;;;;6277617;22;20011;-88
2023/06/23 11:01:00;;;;;;;0.00;0.00;;;18.40;99.90;;;;;;6272707;22;19999;-87
2023/06/23 11:03:31;;;;;;;0.00;0.00;;;18.50;99.90;;;;;;6276973;22;20007;-87
2023/06/23 11:05:59;;;;;;;0.00;0.00;;;18.40;99.90;;;;;;6277345;22;20335;-87
2023/06/23 11:08:33;;;;;;;0.00;0.00;;;18.50;99.90;;;;;;6276193;22;20021;-86
2023/06/23 11:11:01;;;;;;;0.00;0.00;;;18.80;99.90;;;;;;6278656;22;20051;-87
2023/06/23 11:13:46;;;;;;;0.00;0.00;;;18.50;99.90;;;;;;6277045;22;20384;-86
2023/06/23 11:16:28;;;;;;;0.00;0.00;;;18.60;99.90;;;;;;6276173;22;20008;-88
2023/06/23 11:18:58;;;;;;;0.00;0.00;;;18.50;99.90;;;;;;6276138;22;20015;-87
2023/06/23 11:21:29;;;;;;;0.00;0.00;;;18.40;99.90;;;;;;6279056;22;20014;-90
2023/06/23 11:24:14;;;;;;;0.00;0.00;;;18.30;99.90;;;;;;6304990;22;20317;-89
2023/06/23 11:26:50;;;;;;;0.00;0.00;;;18.20;99.90;;;;;;6303425;22;20090;-88
2023/06/23 11:29:21;;;;;;;0.00;0.00;;;18.20;99.90;;;;;;6303039;22;20003;-89
2023/06/23 11:32:07;;;;;;;0.00;0.00;;;18.20;99.90;;;;;;6271942;22;20442;-88
2023/06/23 11:34:56;;;;;;;0.00;0.00;;;18.20;99.90;;;;;;6273190;22;20008;-88
2023/06/23 11:37:25;;;;;;;0.00;0.00;;;18.00;99.90;;;;;;6272588;22;20466;-88
2023/06/23 11:39:53;;;;;;;0.00;0.00;;;18.00;99.90;;;;;;6273893;22;20011;-89
2023/06/23 11:42:18;;;;;;;0.00;0.00;;;18.00;99.90;;;;;;6270707;22;19996;-87
2023/06/23 11:44:44;;;;;;;0.00;0.00;;;;;;;;;;6271325;22;20003;-88
2023/06/23 11:47:10;;;;;;;0.00;0.00;;;18.10;99.90;;;;;;6269868;22;20000;-88
2023/06/23 11:49:36;;;;;;;0.00;0.00;;;;;;;;;;6272174;22;20027;-88
2023/06/23 11:52:04;;;;;;;0.00;0.00;;;18.30;99.90;;;;;;6258544;22;20613;-89
2023/06/23 11:54:35;;;;;;;0.00;0.00;;;18.60;99.90;;;;;;6268731;22;20007;-88
2023/06/23 11:57:02;;;;;;;0.00;0.00;;;18.90;99.90;;;;;;6272520;22;20091;-89
2023/06/23 11:59:35;;;;;;;0.00;0.00;;;19.30;99.90;;;;;;6269576;22;20244;-89
2023/06/23 12:02:02;;;;;;;0.00;0.00;;;19.20;99.90;;;;;;6268855;22;20007;-88
2023/06/23 12:04:27;;;;;;;0.00;0.00;;;19.60;99.90;;;;;;6269795;22;20004;-87
2023/06/23 12:06:54;;;;;;;0.00;0.00;;;20.10;99.90;;;;;;6270806;22;20432;-88
2023/06/23 12:09:20;;;;;;;0.00;0.00;;;20.30;99.90;;;;;;6269834;22;20031;-88
2023/06/23 12:11:47;;;;;;;0.00;0.00;;;;;;;;;;6269392;22;20058;-88
2023/06/23 12:14:12;;;;;;;0.00;0.00;;;20.40;99.90;;;;;;6269626;22;20027;-88
2023/06/23 12:16:38;;;;;;;0.00;0.00;;;20.50;99.90;;;;;;6270915;22;20018;-88
2023/06/23 12:19:04;;;;;;;0.00;0.00;;;;;;;;;;6270094;22;20090;-88
2023/06/23 12:21:30;;;;;;;0.00;0.00;;;;;;;;;;6269293;22;20496;-89
2023/06/23 12:23:58;;;;;;;0.00;0.00;;;20.80;99.90;;;;;;6244326;22;20031;-88
2023/06/23 12:26:23;;;;;;;0.00;0.00;;;21.00;99.90;;;;;;6269875;22;20067;-87
2023/06/23 12:28:49;;;;;;;0.00;0.00;;;21.10;99.90;;;;;;6269949;22;20090;-89
2023/06/23 12:31:25;;;;;;;0.00;0.00;;;20.60;99.90;;;;;;6270802;22;20344;-88
2023/06/23 12:33:51;;;;;;;0.00;0.00;;;21.30;99.90;;;;;;6270596;22;20034;-88
2023/06/23 12:36:16;;;;;;;0.00;0.00;;;;;;;;;;6243633;22;20035;-87
2023/06/23 12:38:43;;;;;;;0.00;0.00;;;;;;;;;;6244167;22;20022;-89
2023/06/23 12:41:26;;;;;;;0.00;0.00;;;22.00;99.90;;;;;;6243749;22;20057;-88
2023/06/23 12:43:57;;;;;;;0.00;0.00;;;22.30;99.90;;;;;;6245836;22;20012;-89
2023/06/23 12:46:24;;;;;;;0.00;0.00;;;22.60;99.90;;;;;;6271284;22;20007;-88
2023/06/23 12:48:51;;;;;;;0.00;0.00;;;23.30;99.90;;;;;;6270644;22;20030;-88
2023/06/23 12:51:17;;;;;;;0.00;0.00;;;;;;;;;;6242918;22;20018;-88
2023/06/23 12:53:43;;;;;;;0.00;0.00;;;;;;;;;;6243560;22;20057;-88
2023/06/23 12:56:10;;;;;;;0.00;0.00;;;;;;;;;;6241411;22;20008;-87
2023/06/23 12:58:37;;;;;;;0.00;0.00;;;;;;;;;;6239874;22;20094;-87
2023/06/23 13:01:03;;;;;;;0.00;0.00;;;23.80;99.90;;;;;;6273364;22;20002;-88
2023/06/23 13:03:28;;;;;;;0.00;0.00;;;23.20;99.90;;;;;;6272710;22;19999;-88
2023/06/23 13:05:56;;;;;;;0.00;0.00;;;23.10;99.90;;;;;;6243738;22;20340;-88
2023/06/23 13:08:21;;;;;;;0.00;0.00;;;23.20;99.90;;;;;;6240206;22;20008;-89
2023/06/23 13:10:47;;;;;;;0.00;0.00;;;;;;;;;;6272437;22;20018;-88
2023/06/23 13:13:13;;;;;;;0.00;0.00;;;;;;;;;;6243463;22;20007;-88
2023/06/23 13:15:39;;;;;;;0.00;0.00;;;;;;;;;;6243146;22;20007;-87
2023/06/23 13:18:06;;;;;;;0.00;0.00;;;22.50;99.90;;;;;;6246266;22;20073;-88